sensor_id;sensor_type;location;lat;lon;timestamp;P1;durP1;ratioP1;P2;durP2;ratioP2
13421;SDS011;6782;55.904;13.396;2022-10-04T00:00:26;13.80;;;3.53;;
13421;SDS011;6782;55.904;13.396;2022-10-04T00:03:17;19.03;;;3.43;;
13421;SDS011;6782;55.904;13.396;2022-10-04T00:06:18;17.57;;;4.23;;
13421;SDS011;6782;55.904;13.396;2022-10-04T00:09:10;17.27;;;4.00;;
13421;SDS011;6782;55.904;13.396;2022-10-04T00:12:02;19.53;;;4.47;;
13421;SDS011;6782;55.904;13.396;2022-10-04T00:14:51;11.53;;;3.40;;
13421;SDS011;6782;55.904;13.396;2022-10-04T00:17:41;16.83;;;3.70;;
13421;SDS011;6782;55.904;13.396;2022-10-04T00:23:49;15.13;;;3.67;;
13421;SDS011;6782;55.904;13.396;2022-10-04T00:30:14;5.37;;;1.87;;
13421;SDS011;6782;55.904;13.396;2022-10-04T00:33:07;3.83;;;1.57;;
13421;SDS011;6782;55.904;13.396;2022-10-04T00:35:54;5.23;;;1.70;;
13421;SDS011;6782;55.904;13.396;2022-10-04T00:38:42;5.40;;;1.63;;
13421;SDS011;6782;55.904;13.396;2022-10-04T00:41:30;5.93;;;1.70;;
13421;SDS011;6782;55.904;13.396;2022-10-04T00:44:26;9.67;;;2.20;;
13421;SDS011;6782;55.904;13.396;2022-10-04T00:47:22;9.30;;;2.83;;
13421;SDS011;6782;55.904;13.396;2022-10-04T00:50:16;11.87;;;3.00;;
13421;SDS011;6782;55.904;13.396;2022-10-04T00:53:12;9.13;;;3.00;;
13421;SDS011;6782;55.904;13.396;2022-10-04T00:56:08;13.87;;;3.10;;
13421;SDS011;6782;55.904;13.396;2022-10-04T01:02:18;13.23;;;3.30;;
13421;SDS011;6782;55.904;13.396;2022-10-04T01:05:07;14.87;;;3.13;;
13421;SDS011;6782;55.904;13.396;2022-10-04T01:08:02;6.63;;;2.87;;
13421;SDS011;6782;55.904;13.396;2022-10-04T01:10:55;9.20;;;2.83;;
13421;SDS011;6782;55.904;13.396;2022-10-04T01:13:47;9.83;;;3.10;;
13421;SDS011;6782;55.904;13.396;2022-10-04T01:16:39;9.17;;;2.57;;
13421;SDS011;6782;55.904;13.396;2022-10-04T01:19:29;8.90;;;2.75;;
13421;SDS011;6782;55.904;13.396;2022-10-04T01:22:28;8.57;;;2.40;;
13421;SDS011;6782;55.904;13.396;2022-10-04T01:28:34;6.93;;;2.30;;
13421;SDS011;6782;55.904;13.396;2022-10-04T01:31:23;6.60;;;2.50;;
13421;SDS011;6782;55.904;13.396;2022-10-04T01:34:12;8.67;;;2.57;;
13421;SDS011;6782;55.904;13.396;2022-10-04T01:37:02;6.37;;;2.57;;
13421;SDS011;6782;55.904;13.396;2022-10-04T01:39:51;6.70;;;2.47;;
13421;SDS011;6782;55.904;13.396;2022-10-04T01:42:40;7.83;;;2.87;;
13421;SDS011;6782;55.904;13.396;2022-10-04T01:45:34;10.47;;;2.80;;
13421;SDS011;6782;55.904;13.396;2022-10-04T01:48:26;10.33;;;2.97;;
13421;SDS011;6782;55.904;13.396;2022-10-04T01:51:18;6.40;;;3.57;;
13421;SDS011;6782;55.904;13.396;2022-10-04T01:54:10;11.30;;;3.90;;
13421;SDS011;6782;55.904;13.396;2022-10-04T01:57:06;11.90;;;3.87;;
13421;SDS011;6782;55.904;13.396;2022-10-04T02:00:00;8.83;;;3.97;;
13421;SDS011;6782;55.904;13.396;2022-10-04T02:02:52;10.77;;;4.20;;
13421;SDS011;6782;55.904;13.396;2022-10-04T02:05:48;10.03;;;3.53;;
13421;SDS011;6782;55.904;13.396;2022-10-04T02:08:39;11.07;;;3.80;;
13421;SDS011;6782;55.904;13.396;2022-10-04T02:11:33;10.07;;;4.17;;
13421;SDS011;6782;55.904;13.396;2022-10-04T02:14:26;10.33;;;4.50;;
13421;SDS011;6782;55.904;13.396;2022-10-04T02:17:18;10.00;;;4.37;;
13421;SDS011;6782;55.904;13.396;2022-10-04T02:20:09;15.93;;;4.53;;
13421;SDS011;6782;55.904;13.396;2022-10-04T02:22:59;8.73;;;4.43;;
13421;SDS011;6782;55.904;13.396;2022-10-04T02:25:47;11.07;;;4.53;;
13421;SDS011;6782;55.904;13.396;2022-10-04T02:28:35;12.83;;;4.63;;
13421;SDS011;6782;55.904;13.396;2022-10-04T02:31:25;11.87;;;4.80;;
13421;SDS011;6782;55.904;13.396;2022-10-04T02:34:31;8.20;;;4.60;;
13421;SDS011;6782;55.904;13.396;2022-10-04T02:37:20;9.90;;;4.10;;
13421;SDS011;6782;55.904;13.396;2022-10-04T02:40:09;12.73;;;4.50;;
13421;SDS011;6782;55.904;13.396;2022-10-04T02:43:01;14.27;;;4.60;;
13421;SDS011;6782;55.904;13.396;2022-10-04T02:45:53;13.77;;;4.10;;
13421;SDS011;6782;55.904;13.396;2022-10-04T02:48:50;11.97;;;4.30;;
13421;SDS011;6782;55.904;13.396;2022-10-04T02:51:42;7.60;;;4.10;;
13421;SDS011;6782;55.904;13.396;2022-10-04T02:54:35;8.97;;;3.17;;
13421;SDS011;6782;55.904;13.396;2022-10-04T02:57:26;6.00;;;2.90;;
13421;SDS011;6782;55.904;13.396;2022-10-04T03:00:18;5.97;;;2.50;;
13421;SDS011;6782;55.904;13.396;2022-10-04T03:03:12;13.23;;;2.57;;
13421;SDS011;6782;55.904;13.396;2022-10-04T03:06:05;8.23;;;2.50;;
13421;SDS011;6782;55.904;13.396;2022-10-04T03:08:55;3.30;;;1.70;;
13421;SDS011;6782;55.904;13.396;2022-10-04T03:11:45;14.47;;;2.60;;
13421;SDS011;6782;55.904;13.396;2022-10-04T03:14:36;9.63;;;2.67;;
13421;SDS011;6782;55.904;13.396;2022-10-04T03:17:24;5.73;;;2.00;;
13421;SDS011;6782;55.904;13.396;2022-10-04T03:20:14;8.33;;;2.17;;
13421;SDS011;6782;55.904;13.396;2022-10-04T03:23:07;6.07;;;2.07;;
13421;SDS011;6782;55.904;13.396;2022-10-04T03:25:57;3.80;;;1.93;;
13421;SDS011;6782;55.904;13.396;2022-10-04T03:28:48;8.87;;;2.37;;
13421;SDS011;6782;55.904;13.396;2022-10-04T03:31:36;4.63;;;1.80;;
13421;SDS011;6782;55.904;13.396;2022-10-04T03:34:31;2.90;;;1.63;;
13421;SDS011;6782;55.904;13.396;2022-10-04T03:37:22;2.50;;;1.80;;
13421;SDS011;6782;55.904;13.396;2022-10-04T03:40:13;3.00;;;1.70;;
13421;SDS011;6782;55.904;13.396;2022-10-04T03:43:01;1.83;;;1.60;;
13421;SDS011;6782;55.904;13.396;2022-10-04T03:45:50;7.20;;;2.00;;
13421;SDS011;6782;55.904;13.396;2022-10-04T03:48:38;5.73;;;2.17;;
13421;SDS011;6782;55.904;13.396;2022-10-04T03:51:29;7.10;;;2.00;;
13421;SDS011;6782;55.904;13.396;2022-10-04T03:54:18;7.23;;;1.83;;
13421;SDS011;6782;55.904;13.396;2022-10-04T03:57:10;2.70;;;2.20;;
13421;SDS011;6782;55.904;13.396;2022-10-04T03:59:58;4.63;;;2.27;;
13421;SDS011;6782;55.904;13.396;2022-10-04T04:02:47;9.93;;;3.30;;
13421;SDS011;6782;55.904;13.396;2022-10-04T04:05:39;18.70;;;3.73;;
13421;SDS011;6782;55.904;13.396;2022-10-04T04:08:31;25.10;;;4.77;;
13421;SDS011;6782;55.904;13.396;2022-10-04T04:11:21;29.87;;;5.13;;
13421;SDS011;6782;55.904;13.396;2022-10-04T04:14:12;30.10;;;4.97;;
13421;SDS011;6782;55.904;13.396;2022-10-04T04:20:23;11.83;;;5.03;;
13421;SDS011;6782;55.904;13.396;2022-10-04T04:23:17;10.43;;;4.57;;
13421;SDS011;6782;55.904;13.396;2022-10-04T04:26:13;21.93;;;5.17;;
13421;SDS011;6782;55.904;13.396;2022-10-04T04:29:07;14.60;;;4.00;;
13421;SDS011;6782;55.904;13.396;2022-10-04T04:32:01;11.87;;;4.17;;
13421;SDS011;6782;55.904;13.396;2022-10-04T04:34:52;10.17;;;4.30;;
13421;SDS011;6782;55.904;13.396;2022-10-04T04:37:43;4.47;;;3.73;;
13421;SDS011;6782;55.904;13.396;2022-10-04T04:40:30;9.43;;;4.50;;
13421;SDS011;6782;55.904;13.396;2022-10-04T04:43:18;10.17;;;4.63;;
13421;SDS011;6782;55.904;13.396;2022-10-04T04:46:07;14.00;;;4.30;;
13421;SDS011;6782;55.904;13.396;2022-10-04T04:48:59;6.30;;;4.63;;
13421;SDS011;6782;55.904;13.396;2022-10-04T04:51:50;7.97;;;5.27;;
13421;SDS011;6782;55.904;13.396;2022-10-04T04:54:38;6.80;;;3.70;;
13421;SDS011;6782;55.904;13.396;2022-10-04T04:57:25;8.93;;;3.57;;
13421;SDS011;6782;55.904;13.396;2022-10-04T05:00:16;9.70;;;4.00;;
13421;SDS011;6782;55.904;13.396;2022-10-04T05:03:05;4.50;;;3.83;;
13421;SDS011;6782;55.904;13.396;2022-10-04T05:06:16;9.80;;;3.27;;
13421;SDS011;6782;55.904;13.396;2022-10-04T05:09:20;13.50;;;3.70;;
13421;SDS011;6782;55.904;13.396;2022-10-04T05:12:09;9.90;;;2.50;;
13421;SDS011;6782;55.904;13.396;2022-10-04T05:15:02;6.10;;;2.37;;
13421;SDS011;6782;55.904;13.396;2022-10-04T05:17:50;7.53;;;2.60;;
13421;SDS011;6782;55.904;13.396;2022-10-04T05:20:38;6.73;;;2.60;;
13421;SDS011;6782;55.904;13.396;2022-10-04T05:23:29;5.10;;;2.67;;
13421;SDS011;6782;55.904;13.396;2022-10-04T05:26:19;7.20;;;2.90;;
13421;SDS011;6782;55.904;13.396;2022-10-04T05:29:15;6.57;;;2.43;;
13421;SDS011;6782;55.904;13.396;2022-10-04T05:32:09;8.93;;;2.73;;
13421;SDS011;6782;55.904;13.396;2022-10-04T05:35:13;13.00;;;3.63;;
13421;SDS011;6782;55.904;13.396;2022-10-04T05:38:02;8.57;;;2.50;;
13421;SDS011;6782;55.904;13.396;2022-10-04T05:41:00;4.47;;;2.37;;
13421;SDS011;6782;55.904;13.396;2022-10-04T05:43:52;7.27;;;2.43;;
13421;SDS011;6782;55.904;13.396;2022-10-04T05:46:40;6.23;;;2.97;;
13421;SDS011;6782;55.904;13.396;2022-10-04T05:49:29;9.43;;;2.60;;
13421;SDS011;6782;55.904;13.396;2022-10-04T05:52:26;5.30;;;2.70;;
13421;SDS011;6782;55.904;13.396;2022-10-04T05:55:26;5.67;;;2.87;;
13421;SDS011;6782;55.904;13.396;2022-10-04T05:58:20;13.67;;;3.93;;
13421;SDS011;6782;55.904;13.396;2022-10-04T06:01:22;6.87;;;2.90;;
13421;SDS011;6782;55.904;13.396;2022-10-04T06:04:32;3.83;;;3.53;;
13421;SDS011;6782;55.904;13.396;2022-10-04T06:07:32;5.37;;;4.20;;
13421;SDS011;6782;55.904;13.396;2022-10-04T06:10:27;9.50;;;5.00;;
13421;SDS011;6782;55.904;13.396;2022-10-04T06:13:40;9.33;;;5.27;;
13421;SDS011;6782;55.904;13.396;2022-10-04T06:16:41;9.33;;;5.13;;
13421;SDS011;6782;55.904;13.396;2022-10-04T06:19:50;7.00;;;4.87;;
13421;SDS011;6782;55.904;13.396;2022-10-04T06:22:53;7.87;;;3.90;;
13421;SDS011;6782;55.904;13.396;2022-10-04T06:25:45;7.27;;;4.43;;
13421;SDS011;6782;55.904;13.396;2022-10-04T06:28:39;3.53;;;3.00;;
13421;SDS011;6782;55.904;13.396;2022-10-04T06:38:20;5.23;;;3.50;;
13421;SDS011;6782;55.904;13.396;2022-10-04T06:41:31;3.47;;;3.17;;
13421;SDS011;6782;55.904;13.396;2022-10-04T06:44:39;4.63;;;4.00;;
13421;SDS011;6782;55.904;13.396;2022-10-04T06:47:38;5.17;;;4.17;;
13421;SDS011;6782;55.904;13.396;2022-10-04T06:50:37;4.43;;;4.03;;
13421;SDS011;6782;55.904;13.396;2022-10-04T06:53:37;5.57;;;3.70;;
13421;SDS011;6782;55.904;13.396;2022-10-04T06:56:38;3.40;;;3.10;;
13421;SDS011;6782;55.904;13.396;2022-10-04T06:59:38;3.53;;;3.10;;
13421;SDS011;6782;55.904;13.396;2022-10-04T07:02:58;4.30;;;2.83;;
13421;SDS011;6782;55.904;13.396;2022-10-04T07:05:52;4.60;;;3.50;;
13421;SDS011;6782;55.904;13.396;2022-10-04T07:08:44;6.83;;;4.20;;
13421;SDS011;6782;55.904;13.396;2022-10-04T07:11:36;5.40;;;3.47;;
13421;SDS011;6782;55.904;13.396;2022-10-04T07:14:30;5.10;;;3.70;;
13421;SDS011;6782;55.904;13.396;2022-10-04T07:17:25;7.07;;;3.40;;
13421;SDS011;6782;55.904;13.396;2022-10-04T07:20:18;5.53;;;3.23;;
13421;SDS011;6782;55.904;13.396;2022-10-04T07:23:11;5.53;;;3.50;;
13421;SDS011;6782;55.904;13.396;2022-10-04T07:26:03;5.90;;;3.90;;
13421;SDS011;6782;55.904;13.396;2022-10-04T07:29:01;5.00;;;3.27;;
13421;SDS011;6782;55.904;13.396;2022-10-04T07:32:08;5.80;;;2.83;;
13421;SDS011;6782;55.904;13.396;2022-10-04T07:35:04;5.50;;;3.73;;
13421;SDS011;6782;55.904;13.396;2022-10-04T07:38:05;7.63;;;3.43;;
13421;SDS011;6782;55.904;13.396;2022-10-04T07:41:05;4.50;;;3.60;;
13421;SDS011;6782;55.904;13.396;2022-10-04T07:43:59;6.37;;;4.00;;
13421;SDS011;6782;55.904;13.396;2022-10-04T07:46:51;5.37;;;3.80;;
13421;SDS011;6782;55.904;13.396;2022-10-04T07:49:41;6.07;;;3.40;;
13421;SDS011;6782;55.904;13.396;2022-10-04T07:52:34;6.83;;;3.70;;
13421;SDS011;6782;55.904;13.396;2022-10-04T07:55:39;7.57;;;3.90;;
13421;SDS011;6782;55.904;13.396;2022-10-04T07:58:39;6.97;;;3.73;;
13421;SDS011;6782;55.904;13.396;2022-10-04T08:01:32;10.27;;;4.33;;
13421;SDS011;6782;55.904;13.396;2022-10-04T08:04:28;12.33;;;4.17;;
13421;SDS011;6782;55.904;13.396;2022-10-04T08:07:23;9.97;;;4.27;;
13421;SDS011;6782;55.904;13.396;2022-10-04T08:10:21;8.70;;;4.03;;
13421;SDS011;6782;55.904;13.396;2022-10-04T08:13:15;12.23;;;4.50;;
13421;SDS011;6782;55.904;13.396;2022-10-04T08:16:13;13.20;;;5.10;;
13421;SDS011;6782;55.904;13.396;2022-10-04T08:19:14;13.13;;;4.77;;
13421;SDS011;6782;55.904;13.396;2022-10-04T08:22:17;12.93;;;4.63;;
13421;SDS011;6782;55.904;13.396;2022-10-04T08:25:15;12.43;;;4.30;;
13421;SDS011;6782;55.904;13.396;2022-10-04T08:28:12;13.23;;;5.73;;
13421;SDS011;6782;55.904;13.396;2022-10-04T08:31:29;12.27;;;4.93;;
13421;SDS011;6782;55.904;13.396;2022-10-04T08:34:29;15.37;;;5.47;;
13421;SDS011;6782;55.904;13.396;2022-10-04T08:37:31;10.70;;;4.00;;
13421;SDS011;6782;55.904;13.396;2022-10-04T08:40:34;12.50;;;4.60;;
13421;SDS011;6782;55.904;13.396;2022-10-04T08:49:22;12.43;;;5.50;;
13421;SDS011;6782;55.904;13.396;2022-10-04T08:56:04;17.70;;;5.63;;
13421;SDS011;6782;55.904;13.396;2022-10-04T08:59:19;12.90;;;6.80;;
13421;SDS011;6782;55.904;13.396;2022-10-04T09:09:37;19.23;;;6.70;;
13421;SDS011;6782;55.904;13.396;2022-10-04T09:15:51;16.03;;;5.43;;
13421;SDS011;6782;55.904;13.396;2022-10-04T09:18:47;10.10;;;4.70;;
13421;SDS011;6782;55.904;13.396;2022-10-04T09:21:41;14.53;;;5.23;;
13421;SDS011;6782;55.904;13.396;2022-10-04T09:24:55;12.73;;;5.07;;
13421;SDS011;6782;55.904;13.396;2022-10-04T09:28:03;15.80;;;4.93;;
13421;SDS011;6782;55.904;13.396;2022-10-04T09:31:05;12.17;;;5.20;;
13421;SDS011;6782;55.904;13.396;2022-10-04T09:34:18;13.47;;;4.47;;
13421;SDS011;6782;55.904;13.396;2022-10-04T09:37:24;12.98;;;4.15;;
13421;SDS011;6782;55.904;13.396;2022-10-04T09:43:55;10.25;;;3.92;;
13421;SDS011;6782;55.904;13.396;2022-10-04T09:47:14;9.33;;;3.60;;
13421;SDS011;6782;55.904;13.396;2022-10-04T09:50:45;8.83;;;3.30;;
13421;SDS011;6782;55.904;13.396;2022-10-04T09:53:53;12.32;;;3.65;;
13421;SDS011;6782;55.904;13.396;2022-10-04T10:00:15;7.27;;;3.30;;
13421;SDS011;6782;55.904;13.396;2022-10-04T10:06:35;6.93;;;3.35;;
13421;SDS011;6782;55.904;13.396;2022-10-04T10:09:35;6.90;;;3.10;;
13421;SDS011;6782;55.904;13.396;2022-10-04T10:13:02;8.63;;;2.83;;
13421;SDS011;6782;55.904;13.396;2022-10-04T10:16:27;9.43;;;3.08;;
13421;SDS011;6782;55.904;13.396;2022-10-04T10:22:54;7.50;;;3.00;;
13421;SDS011;6782;55.904;13.396;2022-10-04T10:26:07;10.80;;;3.20;;
13421;SDS011;6782;55.904;13.396;2022-10-04T10:36:22;5.80;;;2.33;;
13421;SDS011;6782;55.904;13.396;2022-10-04T10:43:34;4.20;;;2.10;;
13421;SDS011;6782;55.904;13.396;2022-10-04T10:46:51;5.10;;;2.40;;
13421;SDS011;6782;55.904;13.396;2022-10-04T10:49:56;6.85;;;2.90;;
13421;SDS011;6782;55.904;13.396;2022-10-04T10:53:15;10.87;;;3.03;;
13421;SDS011;6782;55.904;13.396;2022-10-04T10:56:24;4.82;;;2.65;;
13421;SDS011;6782;55.904;13.396;2022-10-04T11:06:46;9.02;;;3.30;;
13421;SDS011;6782;55.904;13.396;2022-10-04T11:09:59;7.53;;;2.78;;
13421;SDS011;6782;55.904;13.396;2022-10-04T11:13:10;7.10;;;2.30;;
13421;SDS011;6782;55.904;13.396;2022-10-04T11:17:24;9.63;;;2.88;;
13421;SDS011;6782;55.904;13.396;2022-10-04T11:30:37;7.80;;;2.97;;
13421;SDS011;6782;55.904;13.396;2022-10-04T11:35:03;4.47;;;2.00;;
13421;SDS011;6782;55.904;13.396;2022-10-04T11:43:23;5.63;;;2.28;;
13421;SDS011;6782;55.904;13.396;2022-10-04T11:47:40;7.07;;;2.40;;
13421;SDS011;6782;55.904;13.396;2022-10-04T11:51:52;6.30;;;2.30;;
13421;SDS011;6782;55.904;13.396;2022-10-04T11:56:20;8.00;;;2.72;;
13421;SDS011;6782;55.904;13.396;2022-10-04T12:00:21;6.40;;;2.60;;
13421;SDS011;6782;55.904;13.396;2022-10-04T12:04:32;7.78;;;2.97;;
13421;SDS011;6782;55.904;13.396;2022-10-04T12:08:49;6.63;;;2.83;;
13421;SDS011;6782;55.904;13.396;2022-10-04T12:12:50;7.25;;;2.25;;
13421;SDS011;6782;55.904;13.396;2022-10-04T12:16:54;8.50;;;3.15;;
13421;SDS011;6782;55.904;13.396;2022-10-04T12:30:03;8.10;;;3.15;;
13421;SDS011;6782;55.904;13.396;2022-10-04T12:34:04;8.80;;;3.22;;
13421;SDS011;6782;55.904;13.396;2022-10-04T12:38:14;6.88;;;3.03;;
13421;SDS011;6782;55.904;13.396;2022-10-04T12:42:11;7.07;;;3.75;;
13421;SDS011;6782;55.904;13.396;2022-10-04T12:46:10;7.70;;;3.55;;
13421;SDS011;6782;55.904;13.396;2022-10-04T12:49:16;5.65;;;3.72;;
13421;SDS011;6782;55.904;13.396;2022-10-04T12:52:14;8.65;;;3.70;;
13421;SDS011;6782;55.904;13.396;2022-10-04T12:56:12;7.72;;;4.22;;
13421;SDS011;6782;55.904;13.396;2022-10-04T13:00:15;7.47;;;3.95;;
13421;SDS011;6782;55.904;13.396;2022-10-04T13:08:21;7.38;;;4.28;;
13421;SDS011;6782;55.904;13.396;2022-10-04T13:11:24;10.30;;;4.47;;
13421;SDS011;6782;55.904;13.396;2022-10-04T13:15:17;10.13;;;4.47;;
13421;SDS011;6782;55.904;13.396;2022-10-04T13:19:15;10.07;;;4.95;;
13421;SDS011;6782;55.904;13.396;2022-10-04T13:22:29;8.68;;;4.00;;
13421;SDS011;6782;55.904;13.396;2022-10-04T13:25:26;9.48;;;4.35;;
13421;SDS011;6782;55.904;13.396;2022-10-04T13:28:33;8.63;;;4.55;;
13421;SDS011;6782;55.904;13.396;2022-10-04T13:31:36;9.02;;;4.07;;
13421;SDS011;6782;55.904;13.396;2022-10-04T13:34:35;11.80;;;4.63;;
13421;SDS011;6782;55.904;13.396;2022-10-04T13:37:31;8.73;;;4.43;;
13421;SDS011;6782;55.904;13.396;2022-10-04T13:43:50;8.98;;;4.63;;
13421;SDS011;6782;55.904;13.396;2022-10-04T13:46:52;8.40;;;4.50;;
13421;SDS011;6782;55.904;13.396;2022-10-04T13:49:56;8.48;;;4.30;;
13421;SDS011;6782;55.904;13.396;2022-10-04T13:53:01;11.23;;;4.63;;
13421;SDS011;6782;55.904;13.396;2022-10-04T13:56:17;11.73;;;5.03;;
13421;SDS011;6782;55.904;13.396;2022-10-04T13:59:30;10.35;;;4.60;;
13421;SDS011;6782;55.904;13.396;2022-10-04T14:05:56;10.23;;;4.28;;
13421;SDS011;6782;55.904;13.396;2022-10-04T14:12:29;8.93;;;4.28;;
13421;SDS011;6782;55.904;13.396;2022-10-04T14:15:37;8.38;;;4.35;;
13421;SDS011;6782;55.904;13.396;2022-10-04T14:18:52;6.68;;;3.72;;
13421;SDS011;6782;55.904;13.396;2022-10-04T14:22:08;6.50;;;3.22;;
13421;SDS011;6782;55.904;13.396;2022-10-04T14:25:24;9.10;;;3.58;;
13421;SDS011;6782;55.904;13.396;2022-10-04T14:29:17;9.18;;;3.58;;
13421;SDS011;6782;55.904;13.396;2022-10-04T14:32:35;8.48;;;3.38;;
13421;SDS011;6782;55.904;13.396;2022-10-04T14:35:51;8.80;;;2.92;;
13421;SDS011;6782;55.904;13.396;2022-10-04T14:39:12;8.23;;;2.58;;
13421;SDS011;6782;55.904;13.396;2022-10-04T14:42:39;11.68;;;2.95;;
13421;SDS011;6782;55.904;13.396;2022-10-04T14:45:38;8.23;;;2.80;;
13421;SDS011;6782;55.904;13.396;2022-10-04T14:48:45;7.13;;;2.42;;
13421;SDS011;6782;55.904;13.396;2022-10-04T14:52:06;6.00;;;2.63;;
13421;SDS011;6782;55.904;13.396;2022-10-04T14:55:13;7.57;;;3.30;;
13421;SDS011;6782;55.904;13.396;2022-10-04T14:58:18;9.48;;;2.58;;
13421;SDS011;6782;55.904;13.396;2022-10-04T15:01:18;10.07;;;2.50;;
13421;SDS011;6782;55.904;13.396;2022-10-04T15:04:20;7.57;;;2.67;;
13421;SDS011;6782;55.904;13.396;2022-10-04T15:07:28;7.38;;;2.40;;
13421;SDS011;6782;55.904;13.396;2022-10-04T15:10:26;8.13;;;2.75;;
13421;SDS011;6782;55.904;13.396;2022-10-04T15:13:22;9.38;;;2.97;;
13421;SDS011;6782;55.904;13.396;2022-10-04T15:16:18;7.57;;;2.92;;
13421;SDS011;6782;55.904;13.396;2022-10-04T15:19:22;7.68;;;2.88;;
13421;SDS011;6782;55.904;13.396;2022-10-04T15:22:23;7.15;;;2.95;;
13421;SDS011;6782;55.904;13.396;2022-10-04T15:28:33;8.98;;;3.22;;
13421;SDS011;6782;55.904;13.396;2022-10-04T15:31:39;9.45;;;3.35;;
13421;SDS011;6782;55.904;13.396;2022-10-04T15:34:46;8.82;;;3.30;;
13421;SDS011;6782;55.904;13.396;2022-10-04T15:37:49;8.00;;;3.08;;
13421;SDS011;6782;55.904;13.396;2022-10-04T15:40:51;9.60;;;3.50;;
13421;SDS011;6782;55.904;13.396;2022-10-04T15:44:02;5.68;;;3.08;;
13421;SDS011;6782;55.904;13.396;2022-10-04T15:47:07;10.32;;;3.10;;
13421;SDS011;6782;55.904;13.396;2022-10-04T15:50:04;8.40;;;2.97;;
13421;SDS011;6782;55.904;13.396;2022-10-04T15:53:14;9.93;;;3.60;;
13421;SDS011;6782;55.904;13.396;2022-10-04T15:56:12;8.00;;;3.25;;
13421;SDS011;6782;55.904;13.396;2022-10-04T15:59:20;8.65;;;2.90;;
13421;SDS011;6782;55.904;13.396;2022-10-04T16:05:34;9.10;;;3.33;;
13421;SDS011;6782;55.904;13.396;2022-10-04T16:08:30;10.80;;;3.28;;
13421;SDS011;6782;55.904;13.396;2022-10-04T16:11:45;10.50;;;3.33;;
13421;SDS011;6782;55.904;13.396;2022-10-04T16:14:47;14.95;;;3.47;;
13421;SDS011;6782;55.904;13.396;2022-10-04T16:17:52;11.23;;;3.60;;
13421;SDS011;6782;55.904;13.396;2022-10-04T16:21:01;10.10;;;3.42;;
13421;SDS011;6782;55.904;13.396;2022-10-04T16:27:39;10.25;;;3.78;;
13421;SDS011;6782;55.904;13.396;2022-10-04T16:30:32;12.75;;;3.88;;
13421;SDS011;6782;55.904;13.396;2022-10-04T16:33:28;11.10;;;4.50;;
13421;SDS011;6782;55.904;13.396;2022-10-04T16:36:21;13.45;;;4.60;;
13421;SDS011;6782;55.904;13.396;2022-10-04T16:39:12;13.90;;;4.35;;
13421;SDS011;6782;55.904;13.396;2022-10-04T16:42:40;14.70;;;5.22;;
13421;SDS011;6782;55.904;13.396;2022-10-04T16:45:47;13.20;;;5.35;;
13421;SDS011;6782;55.904;13.396;2022-10-04T16:48:52;14.23;;;5.82;;
13421;SDS011;6782;55.904;13.396;2022-10-04T17:01:36;13.23;;;5.85;;
13421;SDS011;6782;55.904;13.396;2022-10-04T17:04:53;10.68;;;5.88;;
13421;SDS011;6782;55.904;13.396;2022-10-04T17:07:51;14.38;;;5.30;;
13421;SDS011;6782;55.904;13.396;2022-10-04T17:11:10;13.53;;;5.03;;
13421;SDS011;6782;55.904;13.396;2022-10-04T17:17:35;13.73;;;4.87;;
13421;SDS011;6782;55.904;13.396;2022-10-04T17:20:36;17.98;;;5.97;;
13421;SDS011;6782;55.904;13.396;2022-10-04T17:23:45;13.77;;;5.40;;
13421;SDS011;6782;55.904;13.396;2022-10-04T17:26:54;11.37;;;5.70;;
13421;SDS011;6782;55.904;13.396;2022-10-04T17:29:58;10.40;;;6.07;;
13421;SDS011;6782;55.904;13.396;2022-10-04T17:32:59;18.37;;;6.60;;
13421;SDS011;6782;55.904;13.396;2022-10-04T17:36:08;13.50;;;6.87;;
13421;SDS011;6782;55.904;13.396;2022-10-04T17:42:35;12.53;;;6.63;;
13421;SDS011;6782;55.904;13.396;2022-10-04T17:45:34;20.83;;;8.00;;
13421;SDS011;6782;55.904;13.396;2022-10-04T17:48:37;12.80;;;7.23;;
13421;SDS011;6782;55.904;13.396;2022-10-04T17:51:48;16.70;;;8.73;;
13421;SDS011;6782;55.904;13.396;2022-10-04T17:54:57;16.70;;;8.37;;
13421;SDS011;6782;55.904;13.396;2022-10-04T17:58:15;12.30;;;8.23;;
13421;SDS011;6782;55.904;13.396;2022-10-04T18:01:07;17.80;;;9.43;;
13421;SDS011;6782;55.904;13.396;2022-10-04T18:04:05;18.37;;;9.87;;
13421;SDS011;6782;55.904;13.396;2022-10-04T18:06:55;20.57;;;10.33;;
13421;SDS011;6782;55.904;13.396;2022-10-04T18:09:48;21.43;;;9.70;;
13421;SDS011;6782;55.904;13.396;2022-10-04T18:12:39;14.83;;;9.97;;
13421;SDS011;6782;55.904;13.396;2022-10-04T18:15:35;19.23;;;10.13;;
13421;SDS011;6782;55.904;13.396;2022-10-04T18:18:29;20.73;;;10.73;;
13421;SDS011;6782;55.904;13.396;2022-10-04T18:21:25;20.70;;;10.87;;
13421;SDS011;6782;55.904;13.396;2022-10-04T18:24:17;21.87;;;11.53;;
13421;SDS011;6782;55.904;13.396;2022-10-04T18:27:13;19.67;;;11.37;;
13421;SDS011;6782;55.904;13.396;2022-10-04T18:30:10;19.27;;;11.63;;
13421;SDS011;6782;55.904;13.396;2022-10-04T18:33:01;18.23;;;12.33;;
13421;SDS011;6782;55.904;13.396;2022-10-04T18:35:59;19.40;;;11.93;;
13421;SDS011;6782;55.904;13.396;2022-10-04T18:39:02;19.50;;;13.50;;
13421;SDS011;6782;55.904;13.396;2022-10-04T18:42:13;17.07;;;12.77;;
13421;SDS011;6782;55.904;13.396;2022-10-04T18:45:16;19.87;;;13.47;;
13421;SDS011;6782;55.904;13.396;2022-10-04T18:48:14;19.20;;;13.53;;
13421;SDS011;6782;55.904;13.396;2022-10-04T18:51:18;17.47;;;15.37;;
13421;SDS011;6782;55.904;13.396;2022-10-04T18:54:13;24.50;;;16.63;;
13421;SDS011;6782;55.904;13.396;2022-10-04T18:57:14;21.07;;;15.83;;
13421;SDS011;6782;55.904;13.396;2022-10-04T19:00:09;21.97;;;16.80;;
13421;SDS011;6782;55.904;13.396;2022-10-04T19:03:21;22.27;;;19.07;;
13421;SDS011;6782;55.904;13.396;2022-10-04T19:06:20;25.17;;;18.33;;
13421;SDS011;6782;55.904;13.396;2022-10-04T19:09:13;23.93;;;17.07;;
13421;SDS011;6782;55.904;13.396;2022-10-04T19:12:09;29.07;;;17.50;;
13421;SDS011;6782;55.904;13.396;2022-10-04T19:15:06;24.80;;;18.27;;
13421;SDS011;6782;55.904;13.396;2022-10-04T19:18:07;21.83;;;17.07;;
13421;SDS011;6782;55.904;13.396;2022-10-04T19:21:18;23.47;;;17.80;;
13421;SDS011;6782;55.904;13.396;2022-10-04T19:27:31;24.93;;;16.87;;
13421;SDS011;6782;55.904;13.396;2022-10-04T19:30:24;21.07;;;16.37;;
13421;SDS011;6782;55.904;13.396;2022-10-04T19:33:16;21.57;;;16.73;;
13421;SDS011;6782;55.904;13.396;2022-10-04T19:36:26;22.57;;;17.17;;
13421;SDS011;6782;55.904;13.396;2022-10-04T19:39:28;23.67;;;15.87;;
13421;SDS011;6782;55.904;13.396;2022-10-04T19:42:24;20.60;;;17.00;;
13421;SDS011;6782;55.904;13.396;2022-10-04T19:45:24;24.43;;;17.97;;
13421;SDS011;6782;55.904;13.396;2022-10-04T19:48:21;22.80;;;15.60;;
13421;SDS011;6782;55.904;13.396;2022-10-04T19:51:22;24.93;;;16.10;;
13421;SDS011;6782;55.904;13.396;2022-10-04T19:54:20;23.50;;;16.67;;
13421;SDS011;6782;55.904;13.396;2022-10-04T19:57:16;20.83;;;16.43;;
13421;SDS011;6782;55.904;13.396;2022-10-04T20:00:16;19.97;;;16.70;;
13421;SDS011;6782;55.904;13.396;2022-10-04T20:03:08;21.63;;;16.77;;
13421;SDS011;6782;55.904;13.396;2022-10-04T20:05:59;25.40;;;17.70;;
13421;SDS011;6782;55.904;13.396;2022-10-04T20:09:21;25.30;;;17.77;;
13421;SDS011;6782;55.904;13.396;2022-10-04T20:12:27;25.63;;;18.07;;
13421;SDS011;6782;55.904;13.396;2022-10-04T20:15:21;25.80;;;18.50;;
13421;SDS011;6782;55.904;13.396;2022-10-04T20:21:47;21.07;;;15.93;;
13421;SDS011;6782;55.904;13.396;2022-10-04T20:27:59;27.90;;;19.93;;
13421;SDS011;6782;55.904;13.396;2022-10-04T20:30:49;23.80;;;19.67;;
13421;SDS011;6782;55.904;13.396;2022-10-04T20:33:43;30.47;;;22.63;;
13421;SDS011;6782;55.904;13.396;2022-10-04T20:36:49;27.50;;;22.87;;
13421;SDS011;6782;55.904;13.396;2022-10-04T20:42:57;28.57;;;21.17;;
13421;SDS011;6782;55.904;13.396;2022-10-04T20:46:20;24.23;;;21.13;;